sensor_id;sensor_type;location;lat;lon;timestamp;P1;durP1;ratioP1;P2;durP2;ratioP2
20888;SDS011;10604;51.976;7.594;2023-01-09T00:01:33;3.30;;;1.50;;
20888;SDS011;10604;51.976;7.594;2023-01-09T00:04:00;2.58;;;1.50;;
20888;SDS011;10604;51.976;7.594;2023-01-09T00:06:26;2.53;;;1.50;;
20888;SDS011;10604;51.976;7.594;2023-01-09T00:08:52;4.05;;;1.48;;
20888;SDS011;10604;51.976;7.594;2023-01-09T00:11:17;3.47;;;1.50;;
20888;SDS011;10604;51.976;7.594;2023-01-09T00:13:43;3.67;;;1.50;;
20888;SDS011;10604;51.976;7.594;2023-01-09T00:16:08;2.83;;;1.53;;
20888;SDS011;10604;51.976;7.594;2023-01-09T00:18:34;2.53;;;1.60;;
20888;SDS011;10604;51.976;7.594;2023-01-09T00:21:01;4.05;;;1.80;;
20888;SDS011;10604;51.976;7.594;2023-01-09T00:23:28;2.75;;;1.52;;
20888;SDS011;10604;51.976;7.594;2023-01-09T00:26:04;3.50;;;1.70;;
20888;SDS011;10604;51.976;7.594;2023-01-09T00:28:31;4.53;;;1.98;;
20888;SDS011;10604;51.976;7.594;2023-01-09T00:30:58;3.40;;;1.77;;
20888;SDS011;10604;51.976;7.594;2023-01-09T00:33:29;2.72;;;1.80;;
20888;SDS011;10604;51.976;7.594;2023-01-09T00:35:57;3.95;;;2.10;;
20888;SDS011;10604;51.976;7.594;2023-01-09T00:38:22;3.97;;;1.93;;
20888;SDS011;10604;51.976;7.594;2023-01-09T00:40:47;5.37;;;1.90;;
20888;SDS011;10604;51.976;7.594;2023-01-09T00:43:13;3.65;;;1.88;;
20888;SDS011;10604;51.976;7.594;2023-01-09T00:45:39;4.07;;;1.87;;
20888;SDS011;10604;51.976;7.594;2023-01-09T00:48:22;2.47;;;1.80;;
20888;SDS011;10604;51.976;7.594;2023-01-09T00:50:51;3.60;;;2.17;;
20888;SDS011;10604;51.976;7.594;2023-01-09T00:53:20;3.33;;;1.92;;
20888;SDS011;10604;51.976;7.594;2023-01-09T00:55:47;3.78;;;2.00;;
20888;SDS011;10604;51.976;7.594;2023-01-09T00:58:13;3.03;;;1.90;;
20888;SDS011;10604;51.976;7.594;2023-01-09T01:00:39;3.63;;;2.07;;
20888;SDS011;10604;51.976;7.594;2023-01-09T01:03:04;3.42;;;2.15;;
20888;SDS011;10604;51.976;7.594;2023-01-09T01:05:30;3.77;;;2.00;;
20888;SDS011;10604;51.976;7.594;2023-01-09T01:08:14;2.53;;;1.80;;
20888;SDS011;10604;51.976;7.594;2023-01-09T01:10:41;3.00;;;1.90;;
20888;SDS011;10604;51.976;7.594;2023-01-09T01:13:07;4.65;;;1.80;;
20888;SDS011;10604;51.976;7.594;2023-01-09T01:15:33;3.45;;;1.55;;
20888;SDS011;10604;51.976;7.594;2023-01-09T01:18:01;3.95;;;1.83;;
20888;SDS011;10604;51.976;7.594;2023-01-09T01:20:27;2.93;;;1.57;;
20888;SDS011;10604;51.976;7.594;2023-01-09T01:22:52;3.63;;;1.60;;
20888;SDS011;10604;51.976;7.594;2023-01-09T01:25:18;2.47;;;1.70;;
20888;SDS011;10604;51.976;7.594;2023-01-09T01:27:43;1.90;;;1.50;;
20888;SDS011;10604;51.976;7.594;2023-01-09T01:30:10;1.50;;;1.27;;
20888;SDS011;10604;51.976;7.594;2023-01-09T01:32:37;1.67;;;1.30;;
20888;SDS011;10604;51.976;7.594;2023-01-09T01:35:03;1.60;;;1.20;;
20888;SDS011;10604;51.976;7.594;2023-01-09T01:37:29;2.05;;;1.23;;
20888;SDS011;10604;51.976;7.594;2023-01-09T01:39:55;1.85;;;1.10;;
20888;SDS011;10604;51.976;7.594;2023-01-09T01:42:21;2.90;;;1.20;;
20888;SDS011;10604;51.976;7.594;2023-01-09T01:47:37;1.55;;;0.98;;
20888;SDS011;10604;51.976;7.594;2023-01-09T01:50:11;1.38;;;1.00;;
20888;SDS011;10604;51.976;7.594;2023-01-09T01:52:41;1.25;;;0.90;;
20888;SDS011;10604;51.976;7.594;2023-01-09T01:55:11;1.90;;;0.90;;
20888;SDS011;10604;51.976;7.594;2023-01-09T01:57:36;1.73;;;0.75;;
20888;SDS011;10604;51.976;7.594;2023-01-09T02:00:06;1.25;;;0.70;;
20888;SDS011;10604;51.976;7.594;2023-01-09T02:15:45;0.82;;;0.80;;
20888;SDS011;10604;51.976;7.594;2023-01-09T02:19:13;0.95;;;0.85;;
20888;SDS011;10604;51.976;7.594;2023-01-09T02:35:47;1.95;;;1.38;;
20888;SDS011;10604;51.976;7.594;2023-01-09T02:41:05;1.73;;;1.58;;
20888;SDS011;10604;51.976;7.594;2023-01-09T02:43:32;3.40;;;2.00;;
20888;SDS011;10604;51.976;7.594;2023-01-09T02:45:57;2.70;;;2.30;;
20888;SDS011;10604;51.976;7.594;2023-01-09T02:48:23;3.80;;;2.38;;
20888;SDS011;10604;51.976;7.594;2023-01-09T02:50:51;2.57;;;2.37;;
20888;SDS011;10604;51.976;7.594;2023-01-09T03:02:24;4.10;;;3.00;;
20888;SDS011;10604;51.976;7.594;2023-01-09T03:05:02;3.88;;;3.05;;
20888;SDS011;10604;51.976;7.594;2023-01-09T03:10:18;4.18;;;3.60;;
20888;SDS011;10604;51.976;7.594;2023-01-09T03:12:54;4.57;;;3.80;;
20888;SDS011;10604;51.976;7.594;2023-01-09T03:17:50;5.50;;;4.20;;
20888;SDS011;10604;51.976;7.594;2023-01-09T03:20:17;4.22;;;3.78;;
20888;SDS011;10604;51.976;7.594;2023-01-09T03:23:07;4.80;;;3.92;;
20888;SDS011;10604;51.976;7.594;2023-01-09T03:25:32;4.18;;;3.78;;
20888;SDS011;10604;51.976;7.594;2023-01-09T03:27:59;4.13;;;3.73;;
20888;SDS011;10604;51.976;7.594;2023-01-09T03:30:27;4.18;;;3.80;;
20888;SDS011;10604;51.976;7.594;2023-01-09T03:32:55;4.13;;;3.72;;
20888;SDS011;10604;51.976;7.594;2023-01-09T03:35:21;4.50;;;4.10;;
20888;SDS011;10604;51.976;7.594;2023-01-09T03:37:47;4.10;;;3.67;;
20888;SDS011;10604;51.976;7.594;2023-01-09T03:40:12;4.30;;;3.90;;
20888;SDS011;10604;51.976;7.594;2023-01-09T03:42:37;4.93;;;4.00;;
20888;SDS011;10604;51.976;7.594;2023-01-09T03:45:03;4.53;;;3.40;;
20888;SDS011;10604;51.976;7.594;2023-01-09T03:47:30;4.80;;;3.53;;
20888;SDS011;10604;51.976;7.594;2023-01-09T03:49:56;3.50;;;2.80;;
20888;SDS011;10604;51.976;7.594;2023-01-09T03:52:21;4.63;;;3.10;;
20888;SDS011;10604;51.976;7.594;2023-01-09T03:54:47;4.97;;;3.00;;
20888;SDS011;10604;51.976;7.594;2023-01-09T03:57:12;5.30;;;3.00;;
20888;SDS011;10604;51.976;7.594;2023-01-09T03:59:37;4.30;;;2.83;;
20888;SDS011;10604;51.976;7.594;2023-01-09T04:02:03;3.45;;;2.83;;
20888;SDS011;10604;51.976;7.594;2023-01-09T04:04:29;4.87;;;3.00;;
20888;SDS011;10604;51.976;7.594;2023-01-09T04:06:54;4.77;;;2.93;;
20888;SDS011;10604;51.976;7.594;2023-01-09T04:09:20;4.17;;;2.63;;
20888;SDS011;10604;51.976;7.594;2023-01-09T04:11:45;6.13;;;2.80;;
20888;SDS011;10604;51.976;7.594;2023-01-09T04:14:10;3.83;;;2.77;;
20888;SDS011;10604;51.976;7.594;2023-01-09T04:16:36;4.53;;;2.63;;
20888;SDS011;10604;51.976;7.594;2023-01-09T04:19:01;5.37;;;3.33;;
20888;SDS011;10604;51.976;7.594;2023-01-09T04:21:26;4.67;;;3.10;;
20888;SDS011;10604;51.976;7.594;2023-01-09T04:23:52;3.30;;;2.93;;
20888;SDS011;10604;51.976;7.594;2023-01-09T04:26:17;4.05;;;3.30;;
20888;SDS011;10604;51.976;7.594;2023-01-09T04:28:42;4.67;;;3.50;;
20888;SDS011;10604;51.976;7.594;2023-01-09T04:31:08;5.23;;;3.70;;
20888;SDS011;10604;51.976;7.594;2023-01-09T04:33:33;5.47;;;4.13;;
20888;SDS011;10604;51.976;7.594;2023-01-09T04:35:59;8.37;;;5.00;;
20888;SDS011;10604;51.976;7.594;2023-01-09T04:38:24;7.00;;;5.10;;
20888;SDS011;10604;51.976;7.594;2023-01-09T04:40:51;10.13;;;5.83;;
20888;SDS011;10604;51.976;7.594;2023-01-09T04:43:16;8.40;;;5.47;;
20888;SDS011;10604;51.976;7.594;2023-01-09T04:45:41;7.77;;;4.90;;
20888;SDS011;10604;51.976;7.594;2023-01-09T04:48:07;5.57;;;3.93;;
20888;SDS011;10604;51.976;7.594;2023-01-09T04:50:32;7.97;;;4.17;;
20888;SDS011;10604;51.976;7.594;2023-01-09T04:52:57;5.80;;;3.80;;
20888;SDS011;10604;51.976;7.594;2023-01-09T04:55:23;8.17;;;3.73;;
20888;SDS011;10604;51.976;7.594;2023-01-09T04:57:48;5.70;;;3.67;;
20888;SDS011;10604;51.976;7.594;2023-01-09T05:00:14;7.97;;;4.17;;
20888;SDS011;10604;51.976;7.594;2023-01-09T05:02:39;4.70;;;3.40;;
20888;SDS011;10604;51.976;7.594;2023-01-09T05:05:05;5.87;;;3.67;;
20888;SDS011;10604;51.976;7.594;2023-01-09T05:07:32;4.30;;;3.90;;
20888;SDS011;10604;51.976;7.594;2023-01-09T05:09:57;6.20;;;4.90;;
20888;SDS011;10604;51.976;7.594;2023-01-09T05:12:23;7.32;;;4.68;;
20888;SDS011;10604;51.976;7.594;2023-01-09T05:14:48;6.73;;;5.13;;
20888;SDS011;10604;51.976;7.594;2023-01-09T05:17:13;7.90;;;5.60;;
20888;SDS011;10604;51.976;7.594;2023-01-09T05:19:39;9.50;;;6.03;;
20888;SDS011;10604;51.976;7.594;2023-01-09T05:22:04;7.70;;;5.80;;
20888;SDS011;10604;51.976;7.594;2023-01-09T05:24:29;7.50;;;6.70;;
20888;SDS011;10604;51.976;7.594;2023-01-09T05:26:55;9.90;;;6.83;;
20888;SDS011;10604;51.976;7.594;2023-01-09T05:29:20;9.77;;;7.07;;
20888;SDS011;10604;51.976;7.594;2023-01-09T05:31:46;8.45;;;7.30;;
20888;SDS011;10604;51.976;7.594;2023-01-09T05:34:11;9.97;;;7.73;;
20888;SDS011;10604;51.976;7.594;2023-01-09T05:36:36;9.67;;;7.40;;
20888;SDS011;10604;51.976;7.594;2023-01-09T05:39:02;11.00;;;7.83;;
20888;SDS011;10604;51.976;7.594;2023-01-09T05:41:27;10.00;;;7.72;;
20888;SDS011;10604;51.976;7.594;2023-01-09T05:43:53;10.53;;;7.57;;
20888;SDS011;10604;51.976;7.594;2023-01-09T05:46:18;10.47;;;6.87;;
20888;SDS011;10604;51.976;7.594;2023-01-09T05:48:44;10.90;;;7.47;;
20888;SDS011;10604;51.976;7.594;2023-01-09T05:51:10;9.23;;;7.40;;
20888;SDS011;10604;51.976;7.594;2023-01-09T05:53:36;10.60;;;6.75;;
20888;SDS011;10604;51.976;7.594;2023-01-09T05:56:01;8.97;;;6.63;;
20888;SDS011;10604;51.976;7.594;2023-01-09T05:58:27;10.13;;;6.47;;
20888;SDS011;10604;51.976;7.594;2023-01-09T06:00:52;7.83;;;5.57;;
20888;SDS011;10604;51.976;7.594;2023-01-09T06:03:18;8.48;;;5.85;;
20888;SDS011;10604;51.976;7.594;2023-01-09T06:05:43;9.13;;;5.40;;
20888;SDS011;10604;51.976;7.594;2023-01-09T06:08:08;7.03;;;5.47;;
20888;SDS011;10604;51.976;7.594;2023-01-09T06:10:34;7.45;;;5.03;;
20888;SDS011;10604;51.976;7.594;2023-01-09T06:12:59;6.80;;;4.83;;
20888;SDS011;10604;51.976;7.594;2023-01-09T06:15:25;8.13;;;4.55;;
20888;SDS011;10604;51.976;7.594;2023-01-09T06:17:51;9.03;;;4.80;;
20888;SDS011;10604;51.976;7.594;2023-01-09T06:20:16;7.40;;;4.60;;
20888;SDS011;10604;51.976;7.594;2023-01-09T06:22:42;6.40;;;4.15;;
20888;SDS011;10604;51.976;7.594;2023-01-09T06:25:09;8.10;;;3.75;;
20888;SDS011;10604;51.976;7.594;2023-01-09T06:27:35;5.90;;;3.35;;
20888;SDS011;10604;51.976;7.594;2023-01-09T06:30:00;5.13;;;2.80;;
20888;SDS011;10604;51.976;7.594;2023-01-09T06:32:26;7.03;;;3.17;;
20888;SDS011;10604;51.976;7.594;2023-01-09T06:34:51;5.25;;;2.30;;
20888;SDS011;10604;51.976;7.594;2023-01-09T06:37:17;7.43;;;2.60;;
20888;SDS011;10604;51.976;7.594;2023-01-09T06:39:42;6.27;;;2.60;;
20888;SDS011;10604;51.976;7.594;2023-01-09T06:42:07;7.13;;;2.17;;
20888;SDS011;10604;51.976;7.594;2023-01-09T06:44:33;6.43;;;2.57;;
20888;SDS011;10604;51.976;7.594;2023-01-09T06:47:00;5.88;;;2.20;;
20888;SDS011;10604;51.976;7.594;2023-01-09T06:49:26;6.20;;;2.20;;
20888;SDS011;10604;51.976;7.594;2023-01-09T06:51:52;5.77;;;2.03;;
20888;SDS011;10604;51.976;7.594;2023-01-09T06:54:17;6.50;;;2.00;;
20888;SDS011;10604;51.976;7.594;2023-01-09T06:56:43;7.95;;;2.08;;
20888;SDS011;10604;51.976;7.594;2023-01-09T06:59:09;5.37;;;1.87;;
20888;SDS011;10604;51.976;7.594;2023-01-09T07:01:34;5.53;;;1.63;;
20888;SDS011;10604;51.976;7.594;2023-01-09T07:04:00;6.47;;;2.00;;
20888;SDS011;10604;51.976;7.594;2023-01-09T07:06:25;4.43;;;1.80;;
20888;SDS011;10604;51.976;7.594;2023-01-09T07:08:50;5.23;;;1.70;;
20888;SDS011;10604;51.976;7.594;2023-01-09T07:11:16;5.13;;;1.80;;
20888;SDS011;10604;51.976;7.594;2023-01-09T07:13:41;5.67;;;1.73;;
20888;SDS011;10604;51.976;7.594;2023-01-09T07:16:06;5.00;;;1.77;;
20888;SDS011;10604;51.976;7.594;2023-01-09T07:18:32;6.63;;;1.90;;
20888;SDS011;10604;51.976;7.594;2023-01-09T07:20:57;5.80;;;1.77;;
20888;SDS011;10604;51.976;7.594;2023-01-09T07:23:23;5.23;;;1.80;;
20888;SDS011;10604;51.976;7.594;2023-01-09T07:25:49;6.00;;;1.83;;
20888;SDS011;10604;51.976;7.594;2023-01-09T07:28:16;5.68;;;1.70;;
20888;SDS011;10604;51.976;7.594;2023-01-09T07:30:41;7.60;;;2.10;;
20888;SDS011;10604;51.976;7.594;2023-01-09T07:33:07;4.70;;;1.80;;
20888;SDS011;10604;51.976;7.594;2023-01-09T07:35:32;7.37;;;1.70;;
20888;SDS011;10604;51.976;7.594;2023-01-09T07:37:57;4.95;;;1.70;;
20888;SDS011;10604;51.976;7.594;2023-01-09T07:40:23;6.00;;;1.70;;
20888;SDS011;10604;51.976;7.594;2023-01-09T07:42:50;5.77;;;2.03;;
20888;SDS011;10604;51.976;7.594;2023-01-09T07:45:17;6.97;;;1.90;;
20888;SDS011;10604;51.976;7.594;2023-01-09T07:47:42;5.77;;;1.63;;
20888;SDS011;10604;51.976;7.594;2023-01-09T07:50:08;5.67;;;1.60;;
20888;SDS011;10604;51.976;7.594;2023-01-09T07:52:33;3.83;;;1.70;;
20888;SDS011;10604;51.976;7.594;2023-01-09T07:54:59;7.77;;;1.80;;
20888;SDS011;10604;51.976;7.594;2023-01-09T07:57:24;6.65;;;1.98;;
20888;SDS011;10604;51.976;7.594;2023-01-09T07:59:50;5.53;;;1.90;;
20888;SDS011;10604;51.976;7.594;2023-01-09T08:02:15;4.95;;;1.50;;
20888;SDS011;10604;51.976;7.594;2023-01-09T08:04:42;4.95;;;1.42;;
20888;SDS011;10604;51.976;7.594;2023-01-09T08:07:07;5.40;;;1.50;;
20888;SDS011;10604;51.976;7.594;2023-01-09T08:09:32;3.93;;;1.63;;
20888;SDS011;10604;51.976;7.594;2023-01-09T08:11:58;4.70;;;1.60;;
20888;SDS011;10604;51.976;7.594;2023-01-09T08:14:23;5.97;;;2.30;;
20888;SDS011;10604;51.976;7.594;2023-01-09T08:16:49;6.70;;;2.30;;
20888;SDS011;10604;51.976;7.594;2023-01-09T08:19:14;4.83;;;2.47;;
20888;SDS011;10604;51.976;7.594;2023-01-09T08:21:39;6.57;;;2.50;;
20888;SDS011;10604;51.976;7.594;2023-01-09T08:24:05;9.63;;;5.37;;
20888;SDS011;10604;51.976;7.594;2023-01-09T08:26:30;9.63;;;5.67;;
20888;SDS011;10604;51.976;7.594;2023-01-09T08:28:56;8.07;;;3.45;;
20888;SDS011;10604;51.976;7.594;2023-01-09T08:31:21;6.43;;;2.50;;
20888;SDS011;10604;51.976;7.594;2023-01-09T08:33:47;7.57;;;2.60;;
20888;SDS011;10604;51.976;7.594;2023-01-09T08:36:12;5.40;;;2.50;;
20888;SDS011;10604;51.976;7.594;2023-01-09T08:38:37;6.95;;;3.35;;
20888;SDS011;10604;51.976;7.594;2023-01-09T08:41:03;6.13;;;2.17;;
20888;SDS011;10604;51.976;7.594;2023-01-09T08:43:48;4.68;;;1.88;;
20888;SDS011;10604;51.976;7.594;2023-01-09T08:46:32;5.80;;;2.08;;
20888;SDS011;10604;51.976;7.594;2023-01-09T08:49:16;5.47;;;2.22;;
20888;SDS011;10604;51.976;7.594;2023-01-09T08:51:41;6.43;;;2.13;;
20888;SDS011;10604;51.976;7.594;2023-01-09T08:54:07;4.70;;;1.90;;
20888;SDS011;10604;51.976;7.594;2023-01-09T08:56:32;5.03;;;1.80;;
20888;SDS011;10604;51.976;7.594;2023-01-09T08:58:57;7.55;;;2.05;;
20888;SDS011;10604;51.976;7.594;2023-01-09T09:01:23;4.50;;;1.70;;
20888;SDS011;10604;51.976;7.594;2023-01-09T09:03:48;4.40;;;1.57;;
20888;SDS011;10604;51.976;7.594;2023-01-09T09:06:13;4.83;;;1.60;;
20888;SDS011;10604;51.976;7.594;2023-01-09T09:08:39;7.10;;;1.77;;
20888;SDS011;10604;51.976;7.594;2023-01-09T09:11:04;4.93;;;1.80;;
20888;SDS011;10604;51.976;7.594;2023-01-09T09:13:30;5.00;;;2.00;;
20888;SDS011;10604;51.976;7.594;2023-01-09T09:15:55;5.40;;;1.50;;
20888;SDS011;10604;51.976;7.594;2023-01-09T09:18:20;4.93;;;1.70;;
20888;SDS011;10604;51.976;7.594;2023-01-09T09:20:46;5.97;;;1.80;;
20888;SDS011;10604;51.976;7.594;2023-01-09T09:23:11;4.10;;;1.40;;
20888;SDS011;10604;51.976;7.594;2023-01-09T09:25:36;4.93;;;1.53;;
20888;SDS011;10604;51.976;7.594;2023-01-09T09:28:02;4.97;;;1.40;;
20888;SDS011;10604;51.976;7.594;2023-01-09T09:30:28;3.78;;;1.65;;
20888;SDS011;10604;51.976;7.594;2023-01-09T09:32:53;5.50;;;1.60;;
20888;SDS011;10604;51.976;7.594;2023-01-09T09:35:19;3.23;;;1.67;;
20888;SDS011;10604;51.976;7.594;2023-01-09T09:37:57;3.95;;;1.70;;
20888;SDS011;10604;51.976;7.594;2023-01-09T09:40:26;6.43;;;1.80;;
20888;SDS011;10604;51.976;7.594;2023-01-09T09:49:02;4.28;;;2.00;;
20888;SDS011;10604;51.976;7.594;2023-01-09T09:51:47;4.82;;;1.90;;
20888;SDS011;10604;51.976;7.594;2023-01-09T09:54:26;6.03;;;1.80;;
20888;SDS011;10604;51.976;7.594;2023-01-09T09:57:04;4.50;;;1.80;;
20888;SDS011;10604;51.976;7.594;2023-01-09T09:59:38;5.88;;;2.00;;
20888;SDS011;10604;51.976;7.594;2023-01-09T10:04:35;4.85;;;2.15;;
20888;SDS011;10604;51.976;7.594;2023-01-09T10:07:06;4.90;;;2.17;;
20888;SDS011;10604;51.976;7.594;2023-01-09T10:12:20;5.95;;;1.80;;
20888;SDS011;10604;51.976;7.594;2023-01-09T10:14:52;4.13;;;1.80;;
20888;SDS011;10604;51.976;7.594;2023-01-09T10:17:38;5.05;;;2.15;;
20888;SDS011;10604;51.976;7.594;2023-01-09T10:30:44;7.22;;;1.77;;
20888;SDS011;10604;51.976;7.594;2023-01-09T10:33:22;6.40;;;1.90;;
20888;SDS011;10604;51.976;7.594;2023-01-09T10:38:23;4.73;;;1.80;;
20888;SDS011;10604;51.976;7.594;2023-01-09T10:41:36;4.88;;;1.70;;
20888;SDS011;10604;51.976;7.594;2023-01-09T10:46:26;6.10;;;2.03;;
20888;SDS011;10604;51.976;7.594;2023-01-09T10:48:58;4.37;;;1.60;;
20888;SDS011;10604;51.976;7.594;2023-01-09T10:54:15;4.23;;;2.03;;
20888;SDS011;10604;51.976;7.594;2023-01-09T10:59:18;8.13;;;2.22;;
20888;SDS011;10604;51.976;7.594;2023-01-09T11:01:44;4.83;;;2.03;;
20888;SDS011;10604;51.976;7.594;2023-01-09T11:06:57;5.65;;;2.15;;
20888;SDS011;10604;51.976;7.594;2023-01-09T11:09:26;4.78;;;2.10;;
20888;SDS011;10604;51.976;7.594;2023-01-09T11:11:51;5.07;;;2.10;;
20888;SDS011;10604;51.976;7.594;2023-01-09T11:17:03;6.50;;;2.10;;
20888;SDS011;10604;51.976;7.594;2023-01-09T11:19:28;5.60;;;1.90;;
20888;SDS011;10604;51.976;7.594;2023-01-09T11:22:16;5.55;;;2.20;;
20888;SDS011;10604;51.976;7.594;2023-01-09T11:24:42;8.82;;;2.25;;
20888;SDS011;10604;51.976;7.594;2023-01-09T11:29:36;5.18;;;2.20;;
20888;SDS011;10604;51.976;7.594;2023-01-09T11:32:01;6.50;;;2.40;;
20888;SDS011;10604;51.976;7.594;2023-01-09T11:34:27;6.30;;;2.58;;
20888;SDS011;10604;51.976;7.594;2023-01-09T11:37:19;5.95;;;2.35;;
20888;SDS011;10604;51.976;7.594;2023-01-09T11:39:50;6.05;;;2.67;;
20888;SDS011;10604;51.976;7.594;2023-01-09T11:42:20;7.25;;;2.60;;
20888;SDS011;10604;51.976;7.594;2023-01-09T11:45:14;6.07;;;2.50;;
20888;SDS011;10604;51.976;7.594;2023-01-09T11:47:41;5.80;;;2.60;;
20888;SDS011;10604;51.976;7.594;2023-01-09T11:50:17;5.32;;;2.67;;
20888;SDS011;10604;51.976;7.594;2023-01-09T11:52:42;6.70;;;2.72;;
20888;SDS011;10604;51.976;7.594;2023-01-09T11:55:09;7.03;;;2.67;;
20888;SDS011;10604;51.976;7.594;2023-01-09T11:57:39;4.97;;;2.53;;
20888;SDS011;10604;51.976;7.594;2023-01-09T12:00:24;5.22;;;2.50;;
20888;SDS011;10604;51.976;7.594;2023-01-09T12:08:25;4.57;;;1.90;;
20888;SDS011;10604;51.976;7.594;2023-01-09T12:32:12;6.30;;;1.90;;
20888;SDS011;10604;51.976;7.594;2023-01-09T12:40:08;3.97;;;1.90;;
20888;SDS011;10604;51.976;7.594;2023-01-09T12:45:36;4.78;;;2.15;;
20888;SDS011;10604;51.976;7.594;2023-01-09T12:50:56;5.10;;;2.00;;
20888;SDS011;10604;51.976;7.594;2023-01-09T12:53:37;4.25;;;1.70;;
20888;SDS011;10604;51.976;7.594;2023-01-09T12:56:08;4.38;;;1.90;;
20888;SDS011;10604;51.976;7.594;2023-01-09T12:58:43;4.63;;;1.98;;
20888;SDS011;10604;51.976;7.594;2023-01-09T13:01:48;3.55;;;1.67;;
20888;SDS011;10604;51.976;7.594;2023-01-09T13:04:18;4.55;;;1.80;;
20888;SDS011;10604;51.976;7.594;2023-01-09T13:06:52;4.30;;;1.90;;
20888;SDS011;10604;51.976;7.594;2023-01-09T13:09:24;4.18;;;1.90;;
20888;SDS011;10604;51.976;7.594;2023-01-09T13:11:56;3.80;;;1.70;;
20888;SDS011;10604;51.976;7.594;2023-01-09T13:14:37;5.63;;;1.90;;
20888;SDS011;10604;51.976;7.594;2023-01-09T13:17:31;5.25;;;2.00;;
20888;SDS011;10604;51.976;7.594;2023-01-09T13:20:03;4.38;;;1.90;;
20888;SDS011;10604;51.976;7.594;2023-01-09T13:22:45;5.40;;;1.85;;
20888;SDS011;10604;51.976;7.594;2023-01-09T13:27:44;5.75;;;2.17;;
20888;SDS011;10604;51.976;7.594;2023-01-09T13:33:13;5.38;;;2.20;;
20888;SDS011;10604;51.976;7.594;2023-01-09T13:35:51;4.47;;;2.00;;
20888;SDS011;10604;51.976;7.594;2023-01-09T13:38:22;3.65;;;2.05;;
20888;SDS011;10604;51.976;7.594;2023-01-09T13:43:59;5.32;;;2.40;;
20888;SDS011;10604;51.976;7.594;2023-01-09T13:46:47;5.63;;;2.20;;
20888;SDS011;10604;51.976;7.594;2023-01-09T13:57:41;5.00;;;2.83;;
20888;SDS011;10604;51.976;7.594;2023-01-09T14:08:11;4.53;;;2.77;;
20888;SDS011;10604;51.976;7.594;2023-01-09T14:10:44;5.07;;;2.83;;
20888;SDS011;10604;51.976;7.594;2023-01-09T14:18:44;6.10;;;2.67;;
20888;SDS011;10604;51.976;7.594;2023-01-09T14:21:13;5.10;;;2.90;;
20888;SDS011;10604;51.976;7.594;2023-01-09T14:23:47;4.35;;;2.55;;
20888;SDS011;10604;51.976;7.594;2023-01-09T14:32:35;5.90;;;2.65;;
20888;SDS011;10604;51.976;7.594;2023-01-09T14:34:48;4.85;;;2.58;;
20888;SDS011;10604;51.976;7.594;2023-01-09T14:37:17;6.57;;;3.00;;
20888;SDS011;10604;51.976;7.594;2023-01-09T14:39:44;5.18;;;3.17;;
20888;SDS011;10604;51.976;7.594;2023-01-09T14:42:11;5.70;;;3.10;;
20888;SDS011;10604;51.976;7.594;2023-01-09T14:47:31;5.47;;;3.38;;
20888;SDS011;10604;51.976;7.594;2023-01-09T14:52:31;8.30;;;3.75;;
20888;SDS011;10604;51.976;7.594;2023-01-09T14:55:00;6.88;;;3.60;;
20888;SDS011;10604;51.976;7.594;2023-01-09T14:57:28;5.82;;;3.85;;
20888;SDS011;10604;51.976;7.594;2023-01-09T15:02:39;7.57;;;4.05;;
20888;SDS011;10604;51.976;7.594;2023-01-09T15:05:06;7.82;;;3.95;;
20888;SDS011;10604;51.976;7.594;2023-01-09T15:07:35;5.65;;;3.47;;
20888;SDS011;10604;51.976;7.594;2023-01-09T15:10:11;5.68;;;3.90;;
20888;SDS011;10604;51.976;7.594;2023-01-09T15:12:40;5.37;;;3.60;;
20888;SDS011;10604;51.976;7.594;2023-01-09T15:15:09;7.82;;;3.63;;
20888;SDS011;10604;51.976;7.594;2023-01-09T15:17:39;8.52;;;3.63;;
20888;SDS011;10604;51.976;7.594;2023-01-09T15:20:07;7.95;;;3.67;;
20888;SDS011;10604;51.976;7.594;2023-01-09T15:22:46;8.18;;;3.90;;
20888;SDS011;10604;51.976;7.594;2023-01-09T15:25:19;6.93;;;4.00;;
20888;SDS011;10604;51.976;7.594;2023-01-09T15:27:55;6.95;;;4.28;;
20888;SDS011;10604;51.976;7.594;2023-01-09T15:32:53;6.70;;;3.97;;
20888;SDS011;10604;51.976;7.594;2023-01-09T15:35:20;7.77;;;4.13;;
20888;SDS011;10604;51.976;7.594;2023-01-09T15:37:46;4.45;;;2.97;;
20888;SDS011;10604;51.976;7.594;2023-01-09T15:40:20;3.20;;;2.20;;
20888;SDS011;10604;51.976;7.594;2023-01-09T15:42:50;4.15;;;1.67;;
20888;SDS011;10604;51.976;7.594;2023-01-09T15:48:13;2.05;;;1.20;;
20888;SDS011;10604;51.976;7.594;2023-01-09T15:50:45;2.88;;;1.27;;
20888;SDS011;10604;51.976;7.594;2023-01-09T15:53:13;2.23;;;1.10;;
20888;SDS011;10604;51.976;7.594;2023-01-09T15:55:41;2.95;;;1.20;;
20888;SDS011;10604;51.976;7.594;2023-01-09T15:58:26;2.47;;;1.20;;
20888;SDS011;10604;51.976;7.594;2023-01-09T16:01:00;2.80;;;1.30;;
20888;SDS011;10604;51.976;7.594;2023-01-09T16:03:45;2.65;;;1.40;;
20888;SDS011;10604;51.976;7.594;2023-01-09T16:06:29;2.50;;;1.30;;
20888;SDS011;10604;51.976;7.594;2023-01-09T16:08:57;2.20;;;1.38;;
20888;SDS011;10604;51.976;7.594;2023-01-09T16:11:25;3.40;;;1.50;;
20888;SDS011;10604;51.976;7.594;2023-01-09T16:13:54;3.95;;;1.35;;
20888;SDS011;10604;51.976;7.594;2023-01-09T16:16:29;2.28;;;1.50;;
20888;SDS011;10604;51.976;7.594;2023-01-09T16:18:57;2.87;;;1.30;;
20888;SDS011;10604;51.976;7.594;2023-01-09T16:21:34;5.07;;;1.90;;
20888;SDS011;10604;51.976;7.594;2023-01-09T16:24:01;3.10;;;1.95;;
20888;SDS011;10604;51.976;7.594;2023-01-09T16:26:30;4.07;;;2.33;;
20888;SDS011;10604;51.976;7.594;2023-01-09T16:29:24;4.82;;;2.92;;
20888;SDS011;10604;51.976;7.594;2023-01-09T16:32:02;3.42;;;2.00;;
20888;SDS011;10604;51.976;7.594;2023-01-09T16:34:29;4.80;;;2.77;;
20888;SDS011;10604;51.976;7.594;2023-01-09T16:36:55;3.77;;;2.10;;
20888;SDS011;10604;51.976;7.594;2023-01-09T16:39:21;4.80;;;2.20;;
20888;SDS011;10604;51.976;7.594;2023-01-09T16:41:46;3.90;;;1.80;;
20888;SDS011;10604;51.976;7.594;2023-01-09T16:44:30;4.47;;;2.40;;
20888;SDS011;10604;51.976;7.594;2023-01-09T16:46:55;5.60;;;2.87;;
20888;SDS011;10604;51.976;7.594;2023-01-09T16:49:23;5.13;;;2.97;;
20888;SDS011;10604;51.976;7.594;2023-01-09T16:51:51;5.43;;;3.23;;
20888;SDS011;10604;51.976;7.594;2023-01-09T16:54:17;6.60;;;3.40;;
20888;SDS011;10604;51.976;7.594;2023-01-09T16:56:44;6.07;;;3.85;;
20888;SDS011;10604;51.976;7.594;2023-01-09T16:59:13;5.95;;;3.90;;
20888;SDS011;10604;51.976;7.594;2023-01-09T17:01:41;7.32;;;4.30;;
20888;SDS011;10604;51.976;7.594;2023-01-09T17:04:11;5.22;;;3.78;;
20888;SDS011;10604;51.976;7.594;2023-01-09T17:06:38;6.05;;;4.40;;
20888;SDS011;10604;51.976;7.594;2023-01-09T17:09:07;7.53;;;4.47;;
20888;SDS011;10604;51.976;7.594;2023-01-09T17:11:35;8.43;;;4.97;;
20888;SDS011;10604;51.976;7.594;2023-01-09T17:14:00;9.00;;;8.10;;
20888;SDS011;10604;51.976;7.594;2023-01-09T17:16:26;9.90;;;7.43;;
20888;SDS011;10604;51.976;7.594;2023-01-09T17:18:52;8.95;;;6.80;;
20888;SDS011;10604;51.976;7.594;2023-01-09T17:21:19;6.87;;;5.63;;
20888;SDS011;10604;51.976;7.594;2023-01-09T17:23:50;9.55;;;5.63;;
20888;SDS011;10604;51.976;7.594;2023-01-09T17:26:35;9.05;;;5.13;;
20888;SDS011;10604;51.976;7.594;2023-01-09T17:29:20;7.43;;;5.80;;
20888;SDS011;10604;51.976;7.594;2023-01-09T17:31:46;9.10;;;5.80;;
20888;SDS011;10604;51.976;7.594;2023-01-09T17:34:11;8.52;;;5.93;;
20888;SDS011;10604;51.976;7.594;2023-01-09T17:36:36;8.37;;;6.67;;
20888;SDS011;10604;51.976;7.594;2023-01-09T17:39:02;9.03;;;6.00;;
20888;SDS011;10604;51.976;7.594;2023-01-09T17:41:28;9.47;;;6.87;;
20888;SDS011;10604;51.976;7.594;2023-01-09T17:43:55;11.50;;;8.13;;
20888;SDS011;10604;51.976;7.594;2023-01-09T17:46:28;9.23;;;7.65;;
20888;SDS011;10604;51.976;7.594;2023-01-09T17:48:56;9.38;;;7.82;;
20888;SDS011;10604;51.976;7.594;2023-01-09T17:51:22;10.25;;;9.15;;
20888;SDS011;10604;51.976;7.594;2023-01-09T17:53:48;11.93;;;9.33;;